Terminal Aerodrome Forecast
Issued by NWS

Home | Current Version | Previous Version | Text Only | Print | Product List | Glossary On
Versions: 1 2 3 4 5 6 7 8 9 10 11 12 13 14 15 16 17 18 19 20 21 22 23 24 25
000
FTUS41 KOKX 012300
TAFHPN
TAF
KHPN 012335Z 0200/0224 15005KT P6SM FEW030 BKN120
     FM020600 00000KT 5SM BR FEW030 SCT050 BKN120
     FM021000 07005KT 4SM -RA BR BKN030 OVC050
     FM021200 05007KT 3SM -RA BR SCT010 OVC025
     FM021900 11006KT P6SM BKN030
      AMD NOT SKED=

USA.gov is the U.S. government's official web portal to all federal, state and local government web resources and services.